sensor_id;sensor_type;location;lat;lon;timestamp;P1;durP1;ratioP1;P2;durP2;ratioP2
42294;SDS011;27947;47.556;18.718;2023-03-23T00:01:24;16.20;;;8.52;;
42294;SDS011;27947;47.556;18.718;2023-03-23T00:03:52;13.85;;;7.80;;
42294;SDS011;27947;47.556;18.718;2023-03-23T00:06:19;14.68;;;8.45;;
42294;SDS011;27947;47.556;18.718;2023-03-23T00:08:45;14.27;;;8.45;;
42294;SDS011;27947;47.556;18.718;2023-03-23T00:11:15;12.85;;;8.40;;
42294;SDS011;27947;47.556;18.718;2023-03-23T00:13:41;15.38;;;8.27;;
42294;SDS011;27947;47.556;18.718;2023-03-23T00:16:07;16.05;;;9.32;;
42294;SDS011;27947;47.556;18.718;2023-03-23T00:18:45;16.50;;;8.63;;
42294;SDS011;27947;47.556;18.718;2023-03-23T00:21:11;13.93;;;8.50;;
42294;SDS011;27947;47.556;18.718;2023-03-23T00:23:36;15.93;;;8.52;;
42294;SDS011;27947;47.556;18.718;2023-03-23T00:26:03;14.68;;;8.50;;
42294;SDS011;27947;47.556;18.718;2023-03-23T00:28:28;19.67;;;8.70;;
42294;SDS011;27947;47.556;18.718;2023-03-23T00:30:55;16.25;;;9.07;;
42294;SDS011;27947;47.556;18.718;2023-03-23T00:33:22;16.17;;;8.32;;
42294;SDS011;27947;47.556;18.718;2023-03-23T00:35:48;14.30;;;7.85;;
42294;SDS011;27947;47.556;18.718;2023-03-23T00:38:13;13.02;;;8.57;;
42294;SDS011;27947;47.556;18.718;2023-03-23T00:40:39;13.55;;;7.97;;
42294;SDS011;27947;47.556;18.718;2023-03-23T00:43:04;15.23;;;8.60;;
42294;SDS011;27947;47.556;18.718;2023-03-23T00:45:30;13.80;;;7.70;;
42294;SDS011;27947;47.556;18.718;2023-03-23T00:47:55;15.18;;;8.75;;
42294;SDS011;27947;47.556;18.718;2023-03-23T00:50:22;17.42;;;8.23;;
42294;SDS011;27947;47.556;18.718;2023-03-23T00:52:48;14.57;;;7.82;;
42294;SDS011;27947;47.556;18.718;2023-03-23T00:55:17;13.88;;;7.95;;
42294;SDS011;27947;47.556;18.718;2023-03-23T00:57:43;12.73;;;7.65;;
42294;SDS011;27947;47.556;18.718;2023-03-23T01:00:08;14.02;;;7.97;;
42294;SDS011;27947;47.556;18.718;2023-03-23T01:02:36;11.30;;;7.15;;
42294;SDS011;27947;47.556;18.718;2023-03-23T01:05:03;13.45;;;7.10;;
42294;SDS011;27947;47.556;18.718;2023-03-23T01:07:28;13.20;;;6.90;;
42294;SDS011;27947;47.556;18.718;2023-03-23T01:09:56;12.05;;;7.25;;
42294;SDS011;27947;47.556;18.718;2023-03-23T01:12:22;11.98;;;7.15;;
42294;SDS011;27947;47.556;18.718;2023-03-23T01:14:49;8.82;;;6.22;;
42294;SDS011;27947;47.556;18.718;2023-03-23T01:17:15;12.55;;;6.43;;
42294;SDS011;27947;47.556;18.718;2023-03-23T01:19:41;13.15;;;6.82;;
42294;SDS011;27947;47.556;18.718;2023-03-23T01:22:07;13.55;;;7.10;;
42294;SDS011;27947;47.556;18.718;2023-03-23T01:24:32;11.95;;;6.93;;
42294;SDS011;27947;47.556;18.718;2023-03-23T01:26:58;11.00;;;6.57;;
42294;SDS011;27947;47.556;18.718;2023-03-23T01:29:27;12.43;;;6.72;;
42294;SDS011;27947;47.556;18.718;2023-03-23T01:31:52;11.35;;;7.00;;
42294;SDS011;27947;47.556;18.718;2023-03-23T01:34:18;13.85;;;7.07;;
42294;SDS011;27947;47.556;18.718;2023-03-23T01:36:43;9.70;;;6.38;;
42294;SDS011;27947;47.556;18.718;2023-03-23T01:39:08;10.43;;;6.00;;
42294;SDS011;27947;47.556;18.718;2023-03-23T01:41:35;12.85;;;6.13;;
42294;SDS011;27947;47.556;18.718;2023-03-23T01:44:59;10.02;;;6.38;;
42294;SDS011;27947;47.556;18.718;2023-03-23T01:47:03;10.70;;;6.28;;
42294;SDS011;27947;47.556;18.718;2023-03-23T01:49:36;10.57;;;5.75;;
42294;SDS011;27947;47.556;18.718;2023-03-23T01:52:08;11.73;;;5.63;;
42294;SDS011;27947;47.556;18.718;2023-03-23T01:54:35;15.77;;;5.88;;
42294;SDS011;27947;47.556;18.718;2023-03-23T01:57:04;10.90;;;5.82;;
42294;SDS011;27947;47.556;18.718;2023-03-23T01:59:30;8.00;;;4.95;;
42294;SDS011;27947;47.556;18.718;2023-03-23T02:02:13;9.75;;;5.68;;
42294;SDS011;27947;47.556;18.718;2023-03-23T02:04:40;8.73;;;5.30;;
42294;SDS011;27947;47.556;18.718;2023-03-23T02:07:07;10.00;;;5.85;;
42294;SDS011;27947;47.556;18.718;2023-03-23T02:09:33;11.50;;;5.32;;
42294;SDS011;27947;47.556;18.718;2023-03-23T02:11:58;9.23;;;4.88;;
42294;SDS011;27947;47.556;18.718;2023-03-23T02:14:24;10.93;;;5.47;;
42294;SDS011;27947;47.556;18.718;2023-03-23T02:19:34;8.50;;;5.53;;
42294;SDS011;27947;47.556;18.718;2023-03-23T02:24:48;8.80;;;4.95;;
42294;SDS011;27947;47.556;18.718;2023-03-23T02:35:37;8.07;;;4.95;;
42294;SDS011;27947;47.556;18.718;2023-03-23T02:38:47;7.75;;;4.78;;
42294;SDS011;27947;47.556;18.718;2023-03-23T02:40:52;6.60;;;4.50;;
42294;SDS011;27947;47.556;18.718;2023-03-23T02:43:22;7.57;;;4.50;;
42294;SDS011;27947;47.556;18.718;2023-03-23T02:45:50;7.07;;;4.40;;
42294;SDS011;27947;47.556;18.718;2023-03-23T02:48:16;7.80;;;4.47;;
42294;SDS011;27947;47.556;18.718;2023-03-23T02:50:46;7.28;;;4.50;;
42294;SDS011;27947;47.556;18.718;2023-03-23T02:53:13;8.55;;;4.45;;
42294;SDS011;27947;47.556;18.718;2023-03-23T02:55:41;7.10;;;4.65;;
42294;SDS011;27947;47.556;18.718;2023-03-23T02:58:11;9.52;;;4.72;;
42294;SDS011;27947;47.556;18.718;2023-03-23T03:00:38;10.27;;;5.25;;
42294;SDS011;27947;47.556;18.718;2023-03-23T03:03:04;7.00;;;4.53;;
42294;SDS011;27947;47.556;18.718;2023-03-23T03:10:30;7.78;;;4.60;;
42294;SDS011;27947;47.556;18.718;2023-03-23T03:20:23;8.18;;;4.90;;
42294;SDS011;27947;47.556;18.718;2023-03-23T03:22:51;10.05;;;4.65;;
42294;SDS011;27947;47.556;18.718;2023-03-23T03:25:18;7.50;;;4.55;;
42294;SDS011;27947;47.556;18.718;2023-03-23T03:27:46;7.20;;;4.70;;
42294;SDS011;27947;47.556;18.718;2023-03-23T03:30:22;10.48;;;4.75;;
42294;SDS011;27947;47.556;18.718;2023-03-23T03:32:51;8.32;;;4.80;;
42294;SDS011;27947;47.556;18.718;2023-03-23T03:35:19;8.43;;;4.30;;
42294;SDS011;27947;47.556;18.718;2023-03-23T03:37:46;6.85;;;3.92;;
42294;SDS011;27947;47.556;18.718;2023-03-23T03:40:14;8.80;;;4.63;;
42294;SDS011;27947;47.556;18.718;2023-03-23T03:42:41;8.38;;;5.57;;
42294;SDS011;27947;47.556;18.718;2023-03-23T03:45:08;7.53;;;5.10;;
42294;SDS011;27947;47.556;18.718;2023-03-23T03:47:34;8.98;;;4.53;;
42294;SDS011;27947;47.556;18.718;2023-03-23T03:49:59;6.88;;;4.40;;
42294;SDS011;27947;47.556;18.718;2023-03-23T03:52:28;6.68;;;4.55;;
42294;SDS011;27947;47.556;18.718;2023-03-23T03:54:54;6.40;;;4.20;;
42294;SDS011;27947;47.556;18.718;2023-03-23T03:57:19;7.22;;;4.40;;
42294;SDS011;27947;47.556;18.718;2023-03-23T04:00:04;7.97;;;4.50;;
42294;SDS011;27947;47.556;18.718;2023-03-23T04:02:43;9.75;;;4.38;;
42294;SDS011;27947;47.556;18.718;2023-03-23T04:05:10;11.77;;;4.93;;
42294;SDS011;27947;47.556;18.718;2023-03-23T04:07:36;6.20;;;4.20;;
42294;SDS011;27947;47.556;18.718;2023-03-23T04:10:04;5.90;;;4.03;;
42294;SDS011;27947;47.556;18.718;2023-03-23T04:12:31;8.15;;;4.18;;
42294;SDS011;27947;47.556;18.718;2023-03-23T04:14:56;6.32;;;4.30;;
42294;SDS011;27947;47.556;18.718;2023-03-23T04:17:27;12.52;;;4.88;;
42294;SDS011;27947;47.556;18.718;2023-03-23T04:19:53;12.13;;;4.00;;
42294;SDS011;27947;47.556;18.718;2023-03-23T04:22:22;10.57;;;4.50;;
42294;SDS011;27947;47.556;18.718;2023-03-23T04:24:50;7.13;;;4.80;;
42294;SDS011;27947;47.556;18.718;2023-03-23T04:27:17;6.10;;;4.05;;
42294;SDS011;27947;47.556;18.718;2023-03-23T04:29:43;6.32;;;4.03;;
42294;SDS011;27947;47.556;18.718;2023-03-23T04:32:32;10.20;;;4.50;;
42294;SDS011;27947;47.556;18.718;2023-03-23T04:34:58;11.85;;;4.47;;
42294;SDS011;27947;47.556;18.718;2023-03-23T04:37:29;6.45;;;4.20;;
42294;SDS011;27947;47.556;18.718;2023-03-23T04:39:55;9.30;;;4.82;;
42294;SDS011;27947;47.556;18.718;2023-03-23T04:42:28;8.27;;;4.90;;
42294;SDS011;27947;47.556;18.718;2023-03-23T04:45:15;10.15;;;4.85;;
42294;SDS011;27947;47.556;18.718;2023-03-23T04:47:41;7.72;;;4.47;;
42294;SDS011;27947;47.556;18.718;2023-03-23T04:50:21;6.78;;;4.90;;
42294;SDS011;27947;47.556;18.718;2023-03-23T04:52:49;9.43;;;5.45;;
42294;SDS011;27947;47.556;18.718;2023-03-23T04:55:16;7.15;;;4.57;;
42294;SDS011;27947;47.556;18.718;2023-03-23T04:57:47;8.40;;;4.90;;
42294;SDS011;27947;47.556;18.718;2023-03-23T05:00:32;7.70;;;5.05;;
42294;SDS011;27947;47.556;18.718;2023-03-23T05:03:02;8.75;;;4.35;;
42294;SDS011;27947;47.556;18.718;2023-03-23T05:05:32;7.97;;;4.82;;
42294;SDS011;27947;47.556;18.718;2023-03-23T05:08:03;7.03;;;4.87;;
42294;SDS011;27947;47.556;18.718;2023-03-23T05:10:33;8.32;;;4.85;;
42294;SDS011;27947;47.556;18.718;2023-03-23T05:13:04;9.53;;;5.40;;
42294;SDS011;27947;47.556;18.718;2023-03-23T05:15:30;8.85;;;5.53;;
42294;SDS011;27947;47.556;18.718;2023-03-23T05:17:56;11.00;;;6.20;;
42294;SDS011;27947;47.556;18.718;2023-03-23T05:20:23;8.02;;;5.43;;
42294;SDS011;27947;47.556;18.718;2023-03-23T05:22:52;13.63;;;6.57;;
42294;SDS011;27947;47.556;18.718;2023-03-23T05:27:58;10.82;;;7.00;;
42294;SDS011;27947;47.556;18.718;2023-03-23T05:30:41;11.00;;;7.13;;
42294;SDS011;27947;47.556;18.718;2023-03-23T05:33:09;12.85;;;7.47;;
42294;SDS011;27947;47.556;18.718;2023-03-23T05:36:13;15.68;;;7.32;;
42294;SDS011;27947;47.556;18.718;2023-03-23T05:39:00;14.85;;;7.85;;
42294;SDS011;27947;47.556;18.718;2023-03-23T05:41:47;12.05;;;8.18;;
42294;SDS011;27947;47.556;18.718;2023-03-23T05:44:13;14.65;;;8.77;;
42294;SDS011;27947;47.556;18.718;2023-03-23T05:46:47;19.45;;;9.45;;
42294;SDS011;27947;47.556;18.718;2023-03-23T05:49:13;15.27;;;8.70;;
42294;SDS011;27947;47.556;18.718;2023-03-23T05:51:41;14.63;;;8.32;;
42294;SDS011;27947;47.556;18.718;2023-03-23T05:54:07;15.23;;;8.43;;
42294;SDS011;27947;47.556;18.718;2023-03-23T05:56:33;16.55;;;8.43;;
42294;SDS011;27947;47.556;18.718;2023-03-23T05:59:09;13.52;;;8.40;;
42294;SDS011;27947;47.556;18.718;2023-03-23T06:01:37;10.95;;;7.45;;
42294;SDS011;27947;47.556;18.718;2023-03-23T06:04:03;14.25;;;8.60;;
42294;SDS011;27947;47.556;18.718;2023-03-23T06:06:38;16.20;;;8.45;;
42294;SDS011;27947;47.556;18.718;2023-03-23T06:09:09;16.40;;;8.85;;
42294;SDS011;27947;47.556;18.718;2023-03-23T06:12:04;14.07;;;8.38;;
42294;SDS011;27947;47.556;18.718;2023-03-23T06:14:57;13.50;;;7.80;;
42294;SDS011;27947;47.556;18.718;2023-03-23T06:17:33;15.20;;;8.95;;
42294;SDS011;27947;47.556;18.718;2023-03-23T06:19:59;15.20;;;8.60;;
42294;SDS011;27947;47.556;18.718;2023-03-23T06:22:25;14.88;;;8.48;;
42294;SDS011;27947;47.556;18.718;2023-03-23T06:25:08;16.20;;;8.60;;
42294;SDS011;27947;47.556;18.718;2023-03-23T06:27:39;17.40;;;8.48;;
42294;SDS011;27947;47.556;18.718;2023-03-23T06:30:04;14.40;;;8.80;;
42294;SDS011;27947;47.556;18.718;2023-03-23T06:32:31;16.65;;;8.82;;
42294;SDS011;27947;47.556;18.718;2023-03-23T06:34:57;17.10;;;9.00;;
42294;SDS011;27947;47.556;18.718;2023-03-23T06:37:31;13.05;;;8.65;;
42294;SDS011;27947;47.556;18.718;2023-03-23T06:40:09;17.60;;;9.43;;
42294;SDS011;27947;47.556;18.718;2023-03-23T06:42:50;14.45;;;9.05;;
42294;SDS011;27947;47.556;18.718;2023-03-23T06:45:34;20.33;;;9.60;;
42294;SDS011;27947;47.556;18.718;2023-03-23T06:48:20;15.32;;;9.48;;
42294;SDS011;27947;47.556;18.718;2023-03-23T06:50:45;14.45;;;9.05;;
42294;SDS011;27947;47.556;18.718;2023-03-23T06:53:13;17.17;;;8.30;;
42294;SDS011;27947;47.556;18.718;2023-03-23T06:55:39;16.83;;;9.05;;
42294;SDS011;27947;47.556;18.718;2023-03-23T06:58:05;17.98;;;9.73;;
42294;SDS011;27947;47.556;18.718;2023-03-23T07:00:32;16.20;;;9.10;;
42294;SDS011;27947;47.556;18.718;2023-03-23T07:02:57;18.05;;;9.20;;
42294;SDS011;27947;47.556;18.718;2023-03-23T07:05:23;20.83;;;9.70;;
42294;SDS011;27947;47.556;18.718;2023-03-23T07:07:50;15.48;;;9.35;;
42294;SDS011;27947;47.556;18.718;2023-03-23T07:10:32;18.35;;;9.60;;
42294;SDS011;27947;47.556;18.718;2023-03-23T07:12:59;16.08;;;8.88;;
42294;SDS011;27947;47.556;18.718;2023-03-23T07:15:27;22.50;;;11.73;;
42294;SDS011;27947;47.556;18.718;2023-03-23T07:17:54;22.25;;;10.88;;
42294;SDS011;27947;47.556;18.718;2023-03-23T07:20:35;14.43;;;9.68;;
42294;SDS011;27947;47.556;18.718;2023-03-23T07:23:01;15.75;;;9.00;;
42294;SDS011;27947;47.556;18.718;2023-03-23T07:25:47;14.07;;;9.48;;
42294;SDS011;27947;47.556;18.718;2023-03-23T07:28:18;17.08;;;9.93;;
42294;SDS011;27947;47.556;18.718;2023-03-23T07:30:44;19.60;;;10.13;;
42294;SDS011;27947;47.556;18.718;2023-03-23T07:33:19;13.68;;;8.98;;
42294;SDS011;27947;47.556;18.718;2023-03-23T07:35:45;20.27;;;9.70;;
42294;SDS011;27947;47.556;18.718;2023-03-23T07:38:13;17.88;;;10.57;;
42294;SDS011;27947;47.556;18.718;2023-03-23T07:40:39;14.57;;;9.15;;
42294;SDS011;27947;47.556;18.718;2023-03-23T07:43:14;15.30;;;8.98;;
42294;SDS011;27947;47.556;18.718;2023-03-23T07:45:58;20.33;;;10.30;;
42294;SDS011;27947;47.556;18.718;2023-03-23T07:48:29;17.75;;;10.95;;
42294;SDS011;27947;47.556;18.718;2023-03-23T07:50:54;15.95;;;8.98;;
42294;SDS011;27947;47.556;18.718;2023-03-23T07:53:20;15.35;;;9.27;;
42294;SDS011;27947;47.556;18.718;2023-03-23T07:55:55;13.30;;;9.43;;
42294;SDS011;27947;47.556;18.718;2023-03-23T07:58:41;14.02;;;8.70;;
42294;SDS011;27947;47.556;18.718;2023-03-23T08:01:06;12.52;;;8.23;;
42294;SDS011;27947;47.556;18.718;2023-03-23T08:03:34;15.93;;;9.23;;
42294;SDS011;27947;47.556;18.718;2023-03-23T08:06:25;20.58;;;9.40;;
42294;SDS011;27947;47.556;18.718;2023-03-23T08:09:11;16.80;;;9.02;;
42294;SDS011;27947;47.556;18.718;2023-03-23T08:11:58;13.55;;;8.85;;
42294;SDS011;27947;47.556;18.718;2023-03-23T08:14:42;15.98;;;9.68;;
42294;SDS011;27947;47.556;18.718;2023-03-23T08:17:25;11.98;;;8.32;;
42294;SDS011;27947;47.556;18.718;2023-03-23T08:20:17;14.07;;;9.10;;
42294;SDS011;27947;47.556;18.718;2023-03-23T08:22:58;15.17;;;8.97;;
42294;SDS011;27947;47.556;18.718;2023-03-23T08:25:43;12.85;;;8.48;;
42294;SDS011;27947;47.556;18.718;2023-03-23T08:28:29;13.20;;;8.57;;
42294;SDS011;27947;47.556;18.718;2023-03-23T08:31:07;11.73;;;8.38;;
42294;SDS011;27947;47.556;18.718;2023-03-23T08:33:52;14.00;;;8.90;;
42294;SDS011;27947;47.556;18.718;2023-03-23T08:36:29;11.10;;;8.10;;
42294;SDS011;27947;47.556;18.718;2023-03-23T08:39:24;11.32;;;7.18;;
42294;SDS011;27947;47.556;18.718;2023-03-23T08:42:16;12.90;;;8.13;;
42294;SDS011;27947;47.556;18.718;2023-03-23T08:44:43;13.73;;;8.00;;
42294;SDS011;27947;47.556;18.718;2023-03-23T08:47:34;21.33;;;8.43;;
42294;SDS011;27947;47.556;18.718;2023-03-23T08:50:23;13.23;;;8.05;;
42294;SDS011;27947;47.556;18.718;2023-03-23T08:53:15;12.40;;;6.82;;
42294;SDS011;27947;47.556;18.718;2023-03-23T08:55:50;8.60;;;6.35;;
42294;SDS011;27947;47.556;18.718;2023-03-23T08:58:15;8.05;;;5.00;;
42294;SDS011;27947;47.556;18.718;2023-03-23T09:01:07;12.00;;;6.50;;
42294;SDS011;27947;47.556;18.718;2023-03-23T09:03:51;9.07;;;5.93;;
42294;SDS011;27947;47.556;18.718;2023-03-23T09:06:55;11.05;;;7.15;;
42294;SDS011;27947;47.556;18.718;2023-03-23T09:09:22;11.57;;;7.18;;
42294;SDS011;27947;47.556;18.718;2023-03-23T09:11:47;12.77;;;7.90;;
42294;SDS011;27947;47.556;18.718;2023-03-23T09:14:12;8.00;;;5.38;;
42294;SDS011;27947;47.556;18.718;2023-03-23T09:16:38;9.15;;;6.03;;
42294;SDS011;27947;47.556;18.718;2023-03-23T09:19:03;11.88;;;6.57;;
42294;SDS011;27947;47.556;18.718;2023-03-23T09:21:29;10.82;;;7.00;;
42294;SDS011;27947;47.556;18.718;2023-03-23T09:23:54;9.65;;;6.63;;
42294;SDS011;27947;47.556;18.718;2023-03-23T09:26:23;10.45;;;6.28;;
42294;SDS011;27947;47.556;18.718;2023-03-23T09:28:49;9.65;;;5.82;;
42294;SDS011;27947;47.556;18.718;2023-03-23T09:31:15;9.95;;;6.57;;
42294;SDS011;27947;47.556;18.718;2023-03-23T09:33:40;12.48;;;6.80;;
42294;SDS011;27947;47.556;18.718;2023-03-23T09:36:07;13.32;;;4.88;;
42294;SDS011;27947;47.556;18.718;2023-03-23T09:38:36;10.75;;;4.65;;
42294;SDS011;27947;47.556;18.718;2023-03-23T09:48:50;7.35;;;4.28;;
42294;SDS011;27947;47.556;18.718;2023-03-23T09:53:52;8.88;;;4.22;;
42294;SDS011;27947;47.556;18.718;2023-03-23T09:56:19;8.35;;;4.22;;
42294;SDS011;27947;47.556;18.718;2023-03-23T09:59:10;11.18;;;4.75;;
42294;SDS011;27947;47.556;18.718;2023-03-23T10:01:32;10.25;;;4.15;;
42294;SDS011;27947;47.556;18.718;2023-03-23T10:04:04;18.48;;;4.70;;
42294;SDS011;27947;47.556;18.718;2023-03-23T10:06:30;15.98;;;3.75;;
42294;SDS011;27947;47.556;18.718;2023-03-23T10:08:56;8.13;;;4.05;;
42294;SDS011;27947;47.556;18.718;2023-03-23T10:16:15;9.05;;;4.10;;
42294;SDS011;27947;47.556;18.718;2023-03-23T10:21:26;11.57;;;4.20;;
42294;SDS011;27947;47.556;18.718;2023-03-23T10:24:01;26.90;;;5.28;;
42294;SDS011;27947;47.556;18.718;2023-03-23T10:26:31;5.85;;;3.75;;
42294;SDS011;27947;47.556;18.718;2023-03-23T10:29:08;8.55;;;4.03;;
42294;SDS011;27947;47.556;18.718;2023-03-23T10:31:38;6.15;;;4.43;;
42294;SDS011;27947;47.556;18.718;2023-03-23T10:34:07;7.88;;;4.53;;
42294;SDS011;27947;47.556;18.718;2023-03-23T10:36:36;12.15;;;5.03;;
42294;SDS011;27947;47.556;18.718;2023-03-23T10:39:05;7.57;;;4.45;;
42294;SDS011;27947;47.556;18.718;2023-03-23T10:41:33;6.95;;;4.07;;
42294;SDS011;27947;47.556;18.718;2023-03-23T10:43:58;8.48;;;4.80;;
42294;SDS011;27947;47.556;18.718;2023-03-23T10:46:37;8.45;;;4.15;;
42294;SDS011;27947;47.556;18.718;2023-03-23T10:49:06;8.02;;;4.95;;
42294;SDS011;27947;47.556;18.718;2023-03-23T10:51:38;5.95;;;3.53;;
42294;SDS011;27947;47.556;18.718;2023-03-23T10:54:05;8.25;;;3.78;;
42294;SDS011;27947;47.556;18.718;2023-03-23T10:56:41;15.65;;;3.80;;
42294;SDS011;27947;47.556;18.718;2023-03-23T10:59:19;7.82;;;3.33;;
42294;SDS011;27947;47.556;18.718;2023-03-23T11:01:47;5.03;;;3.53;;
42294;SDS011;27947;47.556;18.718;2023-03-23T11:04:14;7.53;;;3.83;;
42294;SDS011;27947;47.556;18.718;2023-03-23T11:06:43;10.93;;;4.43;;
42294;SDS011;27947;47.556;18.718;2023-03-23T11:11:39;6.43;;;2.88;;
42294;SDS011;27947;47.556;18.718;2023-03-23T11:16:55;3.70;;;2.20;;
42294;SDS011;27947;47.556;18.718;2023-03-23T11:21:52;16.30;;;2.90;;
42294;SDS011;27947;47.556;18.718;2023-03-23T11:24:21;8.40;;;2.28;;
42294;SDS011;27947;47.556;18.718;2023-03-23T11:26:46;2.88;;;1.90;;
42294;SDS011;27947;47.556;18.718;2023-03-23T11:29:17;5.97;;;1.98;;
42294;SDS011;27947;47.556;18.718;2023-03-23T11:32:05;8.25;;;2.30;;
42294;SDS011;27947;47.556;18.718;2023-03-23T11:34:32;2.30;;;1.73;;
42294;SDS011;27947;47.556;18.718;2023-03-23T11:37:05;3.80;;;1.92;;
42294;SDS011;27947;47.556;18.718;2023-03-23T11:39:32;4.78;;;2.30;;
42294;SDS011;27947;47.556;18.718;2023-03-23T11:41:59;5.00;;;1.85;;
42294;SDS011;27947;47.556;18.718;2023-03-23T11:44:31;8.40;;;2.28;;
42294;SDS011;27947;47.556;18.718;2023-03-23T11:49:25;17.90;;;3.67;;
42294;SDS011;27947;47.556;18.718;2023-03-23T11:51:53;4.43;;;2.30;;
42294;SDS011;27947;47.556;18.718;2023-03-23T11:54:31;7.03;;;2.30;;
42294;SDS011;27947;47.556;18.718;2023-03-23T11:56:58;5.57;;;2.25;;
42294;SDS011;27947;47.556;18.718;2023-03-23T11:59:28;4.80;;;2.35;;
42294;SDS011;27947;47.556;18.718;2023-03-23T12:06:56;3.85;;;2.13;;
42294;SDS011;27947;47.556;18.718;2023-03-23T12:24:49;7.13;;;2.10;;
42294;SDS011;27947;47.556;18.718;2023-03-23T12:27:22;4.60;;;1.95;;
42294;SDS011;27947;47.556;18.718;2023-03-23T12:48:02;3.17;;;1.92;;
42294;SDS011;27947;47.556;18.718;2023-03-23T12:55:27;3.97;;;2.58;;
42294;SDS011;27947;47.556;18.718;2023-03-23T12:57:57;3.42;;;1.92;;
42294;SDS011;27947;47.556;18.718;2023-03-23T13:00:29;5.95;;;1.92;;
42294;SDS011;27947;47.556;18.718;2023-03-23T13:02:58;3.47;;;1.60;;
42294;SDS011;27947;47.556;18.718;2023-03-23T13:08:01;4.43;;;1.80;;
42294;SDS011;27947;47.556;18.718;2023-03-23T13:10:32;4.40;;;2.05;;
42294;SDS011;27947;47.556;18.718;2023-03-23T13:12:58;2.50;;;1.60;;
42294;SDS011;27947;47.556;18.718;2023-03-23T13:23:39;3.75;;;1.95;;
42294;SDS011;27947;47.556;18.718;2023-03-23T13:29:35;2.13;;;1.73;;
42294;SDS011;27947;47.556;18.718;2023-03-23T13:31:33;2.75;;;1.88;;
42294;SDS011;27947;47.556;18.718;2023-03-23T13:34:01;5.70;;;2.05;;
42294;SDS011;27947;47.556;18.718;2023-03-23T13:36:31;5.95;;;2.15;;
42294;SDS011;27947;47.556;18.718;2023-03-23T13:38:58;23.70;;;2.70;;
42294;SDS011;27947;47.556;18.718;2023-03-23T13:41:24;8.35;;;2.05;;
42294;SDS011;27947;47.556;18.718;2023-03-23T13:43:51;3.88;;;1.58;;
42294;SDS011;27947;47.556;18.718;2023-03-23T13:48:49;10.35;;;2.03;;
42294;SDS011;27947;47.556;18.718;2023-03-23T13:56:40;6.20;;;2.33;;
42294;SDS011;27947;47.556;18.718;2023-03-23T13:59:07;4.15;;;2.00;;
42294;SDS011;27947;47.556;18.718;2023-03-23T14:01:36;4.20;;;1.85;;
42294;SDS011;27947;47.556;18.718;2023-03-23T14:04:06;6.75;;;2.10;;
42294;SDS011;27947;47.556;18.718;2023-03-23T14:06:34;16.05;;;2.10;;
42294;SDS011;27947;47.556;18.718;2023-03-23T14:09:06;6.00;;;2.08;;
42294;SDS011;27947;47.556;18.718;2023-03-23T14:11:32;12.07;;;2.47;;
42294;SDS011;27947;47.556;18.718;2023-03-23T14:16:37;9.85;;;2.42;;
42294;SDS011;27947;47.556;18.718;2023-03-23T14:19:04;15.85;;;2.72;;
42294;SDS011;27947;47.556;18.718;2023-03-23T14:21:39;8.93;;;1.98;;
42294;SDS011;27947;47.556;18.718;2023-03-23T14:24:24;14.52;;;2.63;;
42294;SDS011;27947;47.556;18.718;2023-03-23T14:26:50;3.88;;;2.20;;
42294;SDS011;27947;47.556;18.718;2023-03-23T14:29:18;20.67;;;2.50;;
42294;SDS011;27947;47.556;18.718;2023-03-23T14:31:43;5.80;;;2.00;;
42294;SDS011;27947;47.556;18.718;2023-03-23T14:34:13;3.70;;;2.00;;
42294;SDS011;27947;47.556;18.718;2023-03-23T14:36:39;8.18;;;1.85;;
42294;SDS011;27947;47.556;18.718;2023-03-23T14:41:36;10.10;;;1.98;;
42294;SDS011;27947;47.556;18.718;2023-03-23T14:44:03;7.88;;;2.05;;
42294;SDS011;27947;47.556;18.718;2023-03-23T14:46:29;12.88;;;2.00;;
42294;SDS011;27947;47.556;18.718;2023-03-23T14:48:55;6.20;;;1.83;;
42294;SDS011;27947;47.556;18.718;2023-03-23T14:51:21;13.27;;;2.17;;
42294;SDS011;27947;47.556;18.718;2023-03-23T14:53:47;7.47;;;1.98;;
42294;SDS011;27947;47.556;18.718;2023-03-23T14:56:19;58.13;;;4.18;;
42294;SDS011;27947;47.556;18.718;2023-03-23T14:58:48;10.98;;;2.20;;
42294;SDS011;27947;47.556;18.718;2023-03-23T15:01:21;9.95;;;1.80;;
42294;SDS011;27947;47.556;18.718;2023-03-23T15:06:23;7.57;;;2.15;;
42294;SDS011;27947;47.556;18.718;2023-03-23T15:08:52;9.13;;;2.00;;
42294;SDS011;27947;47.556;18.718;2023-03-23T15:11:27;3.90;;;1.70;;
42294;SDS011;27947;47.556;18.718;2023-03-23T15:13:54;7.65;;;2.10;;
42294;SDS011;27947;47.556;18.718;2023-03-23T15:16:21;7.43;;;2.03;;
42294;SDS011;27947;47.556;18.718;2023-03-23T15:21:21;6.20;;;3.00;;
42294;SDS011;27947;47.556;18.718;2023-03-23T15:23:47;7.63;;;3.40;;
42294;SDS011;27947;47.556;18.718;2023-03-23T15:26:19;13.13;;;2.67;;
42294;SDS011;27947;47.556;18.718;2023-03-23T15:28:46;9.38;;;2.88;;
42294;SDS011;27947;47.556;18.718;2023-03-23T15:31:11;5.10;;;2.70;;
42294;SDS011;27947;47.556;18.718;2023-03-23T15:33:37;18.80;;;2.78;;
42294;SDS011;27947;47.556;18.718;2023-03-23T15:36:07;9.32;;;2.38;;
42294;SDS011;27947;47.556;18.718;2023-03-23T15:38:34;5.68;;;2.60;;
42294;SDS011;27947;47.556;18.718;2023-03-23T15:41:00;11.88;;;2.30;;
42294;SDS011;27947;47.556;18.718;2023-03-23T15:43:27;5.93;;;2.35;;
42294;SDS011;27947;47.556;18.718;2023-03-23T15:48:19;3.97;;;2.25;;
42294;SDS011;27947;47.556;18.718;2023-03-23T15:50:46;7.47;;;1.92;;
42294;SDS011;27947;47.556;18.718;2023-03-23T15:55:49;6.10;;;2.28;;
42294;SDS011;27947;47.556;18.718;2023-03-23T15:58:14;13.50;;;2.30;;
42294;SDS011;27947;47.556;18.718;2023-03-23T16:00:40;5.63;;;2.20;;
42294;SDS011;27947;47.556;18.718;2023-03-23T16:03:07;6.15;;;2.25;;
42294;SDS011;27947;47.556;18.718;2023-03-23T16:05:33;5.32;;;2.45;;
42294;SDS011;27947;47.556;18.718;2023-03-23T16:07:59;12.35;;;2.63;;
42294;SDS011;27947;47.556;18.718;2023-03-23T16:10:25;8.05;;;2.42;;
42294;SDS011;27947;47.556;18.718;2023-03-23T16:12:51;6.95;;;2.55;;
42294;SDS011;27947;47.556;18.718;2023-03-23T16:15:16;9.35;;;2.70;;
42294;SDS011;27947;47.556;18.718;2023-03-23T16:17:42;6.97;;;2.75;;
42294;SDS011;27947;47.556;18.718;2023-03-23T16:20:21;4.85;;;2.67;;
42294;SDS011;27947;47.556;18.718;2023-03-23T16:22:47;10.32;;;2.80;;
42294;SDS011;27947;47.556;18.718;2023-03-23T16:25:13;5.60;;;2.33;;
42294;SDS011;27947;47.556;18.718;2023-03-23T16:27:39;6.68;;;2.85;;
42294;SDS011;27947;47.556;18.718;2023-03-23T16:30:16;6.80;;;2.75;;
42294;SDS011;27947;47.556;18.718;2023-03-23T16:32:42;5.18;;;2.90;;
42294;SDS011;27947;47.556;18.718;2023-03-23T16:35:07;9.13;;;2.90;;
42294;SDS011;27947;47.556;18.718;2023-03-23T16:37:33;7.25;;;2.88;;
42294;SDS011;27947;47.556;18.718;2023-03-23T16:39:59;6.45;;;3.15;;
42294;SDS011;27947;47.556;18.718;2023-03-23T16:42:24;7.95;;;3.35;;
42294;SDS011;27947;47.556;18.718;2023-03-23T16:44:49;4.55;;;2.60;;
42294;SDS011;27947;47.556;18.718;2023-03-23T16:47:15;5.68;;;2.97;;
42294;SDS011;27947;47.556;18.718;2023-03-23T16:49:42;5.72;;;2.65;;
42294;SDS011;27947;47.556;18.718;2023-03-23T16:52:07;10.80;;;4.25;;
42294;SDS011;27947;47.556;18.718;2023-03-23T16:54:33;14.50;;;10.55;;
42294;SDS011;27947;47.556;18.718;2023-03-23T16:56:58;14.90;;;8.20;;
42294;SDS011;27947;47.556;18.718;2023-03-23T16:59:26;14.35;;;8.00;;
42294;SDS011;27947;47.556;18.718;2023-03-23T17:01:51;13.50;;;5.93;;
42294;SDS011;27947;47.556;18.718;2023-03-23T17:04:16;14.45;;;3.78;;